createdAt,value
2022-09-15T00:07:06.842Z,21.98
2022-09-15T00:17:10.502Z,22.01
2022-09-15T00:27:15.703Z,21.94
2022-09-15T00:37:18.886Z,21.82
2022-09-15T00:47:26.018Z,21.86
2022-09-15T00:57:32.652Z,21.89
2022-09-15T01:07:42.398Z,21.84
2022-09-15T01:17:54.478Z,21.84
2022-09-15T01:28:14.707Z,21.95
2022-09-15T01:38:24.931Z,22.06
2022-09-15T01:48:29.752Z,21.34
2022-09-15T01:58:34.894Z,21.75
2022-09-15T02:08:42.816Z,21.51
2022-09-15T02:18:52.194Z,21.62
2022-09-15T02:28:56.828Z,21.50
2022-09-15T02:39:06.525Z,21.50
2022-09-15T02:49:10.126Z,21.44
2022-09-15T02:59:15.441Z,21.10
2022-09-15T03:09:18.982Z,21.22
2022-09-15T03:19:24.124Z,21.29
2022-09-15T03:29:27.941Z,21.34
2022-09-15T03:39:33.107Z,21.75
2022-09-15T03:49:36.296Z,21.47
2022-09-15T03:59:41.263Z,21.85
2022-09-15T04:09:44.787Z,22.00
2022-09-15T04:19:49.510Z,22.02
2022-09-15T04:29:53.444Z,22.24
2022-09-15T04:39:58.200Z,22.14
2022-09-15T04:50:02.351Z,22.39
2022-09-15T05:00:08.408Z,22.34
2022-09-15T05:10:13.105Z,22.49
2022-09-15T05:20:18.507Z,22.75
2022-09-15T05:30:37.806Z,22.59
2022-09-15T05:40:44.338Z,22.72
2022-09-15T05:50:50.802Z,22.70
2022-09-15T06:00:55.626Z,22.65
2022-09-15T06:11:02.760Z,22.85
2022-09-15T06:21:09.708Z,23.18
2022-09-15T06:31:14.336Z,23.52
2022-09-15T06:41:19.357Z,23.93
2022-09-15T06:51:24.323Z,24.21
2022-09-15T07:01:30.133Z,24.43
2022-09-15T07:11:34.133Z,24.38
2022-09-15T07:21:38.902Z,24.57
2022-09-15T07:31:42.518Z,24.83
2022-09-15T07:41:47.351Z,25.92
2022-09-15T07:51:50.970Z,27.04
2022-09-15T08:01:55.734Z,27.59
2022-09-15T08:11:59.135Z,27.27
2022-09-15T08:22:04.049Z,27.66
2022-09-15T08:32:07.486Z,27.54
2022-09-15T08:42:16.135Z,27.93
2022-09-15T08:52:23.286Z,28.09
2022-09-15T09:02:52.010Z,28.80
2022-09-15T09:13:06.955Z,28.96
2022-09-15T09:23:15.231Z,29.16
2022-09-15T09:33:29.391Z,29.34
2022-09-15T09:43:34.469Z,29.18
2022-09-15T09:53:37.879Z,28.81
2022-09-15T10:03:43.835Z,28.77
2022-09-15T10:13:53.659Z,28.60
2022-09-15T10:23:59.454Z,28.66
2022-09-15T10:34:26.614Z,29.40
2022-09-15T10:44:37.691Z,29.83
2022-09-15T10:54:55.372Z,29.94
2022-09-15T11:05:22.751Z,29.45
2022-09-15T11:15:38.475Z,29.41
2022-09-15T11:25:45.703Z,29.46
2022-09-15T11:35:53.806Z,29.27
2022-09-15T11:46:00.775Z,29.06
2022-09-15T11:56:11.136Z,28.76
2022-09-15T12:06:17.814Z,28.78
2022-09-15T12:16:21.696Z,28.56
2022-09-15T12:26:27.669Z,28.78
2022-09-15T12:36:36.827Z,28.70
2022-09-15T12:46:42.436Z,28.19
2022-09-15T12:56:52.194Z,27.92
2022-09-15T13:07:28.939Z,26.54
2022-09-15T13:17:34.907Z,25.77
2022-09-15T13:27:40.105Z,25.25
2022-09-15T13:38:12.649Z,25.10
2022-09-15T13:48:49.821Z,24.97
2022-09-15T13:58:58.337Z,24.93
2022-09-15T14:09:07.970Z,24.75
2022-09-15T14:19:31.207Z,23.32
2022-09-15T14:29:34.457Z,23.94
2022-09-15T14:39:40.378Z,24.17
2022-09-15T14:49:43.490Z,23.97
2022-09-15T14:59:50.742Z,23.82
2022-09-15T15:09:57.842Z,23.83
2022-09-15T15:20:15.439Z,23.51
2022-09-15T15:30:34.759Z,23.22
2022-09-15T15:40:40.540Z,22.78
2022-09-15T15:50:44.160Z,22.75
2022-09-15T16:00:50.381Z,22.69
2022-09-15T16:10:54.746Z,22.78
2022-09-15T16:20:59.186Z,22.59
2022-09-15T16:31:02.342Z,22.50
2022-09-15T16:41:11.935Z,22.59
2022-09-15T16:51:26.775Z,22.76
2022-09-15T17:01:33.385Z,22.54
2022-09-15T17:11:36.603Z,22.45
2022-09-15T17:21:41.010Z,22.27
2022-09-15T17:31:44.084Z,22.15
2022-09-15T17:41:48.562Z,22.18
2022-09-15T17:51:51.627Z,21.90
2022-09-15T18:01:56.154Z,21.67
2022-09-15T18:12:00.005Z,21.69
2022-09-15T18:22:04.736Z,21.55
2022-09-15T18:32:07.865Z,21.42
2022-09-15T18:42:12.282Z,21.05
2022-09-15T18:52:15.473Z,21.27
2022-09-15T19:02:20.054Z,21.07
2022-09-15T19:12:23.492Z,21.04
2022-09-15T19:22:27.987Z,21.02
2022-09-15T19:32:31.108Z,20.88
2022-09-15T19:42:35.625Z,20.82
2022-09-15T19:52:38.841Z,20.87
2022-09-15T20:02:43.582Z,20.81
2022-09-15T20:12:46.761Z,20.86
2022-09-15T20:22:51.209Z,20.85
2022-09-15T20:32:54.342Z,20.75
2022-09-15T20:42:58.905Z,20.92
2022-09-15T20:53:02.061Z,20.98
2022-09-15T21:03:06.662Z,20.72
2022-09-15T21:13:09.809Z,20.85
2022-09-15T21:23:14.319Z,20.87
2022-09-15T21:33:17.486Z,20.72
2022-09-15T21:43:22.010Z,20.57
2022-09-15T21:53:25.273Z,20.89
2022-09-15T22:03:30.125Z,20.80
2022-09-15T22:13:33.412Z,20.82
2022-09-15T22:23:38.095Z,20.36
2022-09-15T22:33:42.362Z,20.63
2022-09-15T22:43:48.090Z,20.50
2022-09-15T22:53:53.983Z,20.50
2022-09-15T23:04:00.339Z,20.34
2022-09-15T23:14:03.439Z,20.25
2022-09-15T23:24:08.860Z,20.19
2022-09-15T23:34:12.130Z,20.18
2022-09-15T23:44:16.535Z,20.22
2022-09-15T23:54:19.640Z,20.21
